createdAt,value
2022-08-17T00:01:27.469Z,14.00
2022-08-17T00:03:54.661Z,13.70
2022-08-17T00:06:25.060Z,14.15
2022-08-17T00:08:58.064Z,14.98
2022-08-17T00:11:32.202Z,15.63
2022-08-17T00:14:05.769Z,19.13
2022-08-17T00:16:55.313Z,20.23
2022-08-17T00:19:25.707Z,23.67
2022-08-17T00:22:29.823Z,27.20
2022-08-17T00:24:42.780Z,28.20
2022-08-17T00:27:09.483Z,28.48
2022-08-17T00:29:36.155Z,29.02
2022-08-17T00:33:14.543Z,28.35
2022-08-17T00:37:16.791Z,30.23
2022-08-17T00:39:43.748Z,31.55
2022-08-17T00:42:18.303Z,35.15
2022-08-17T00:44:45.546Z,31.67
2022-08-17T00:47:12.279Z,47.75
2022-08-17T00:49:38.970Z,40.45
2022-08-17T00:52:15.561Z,38.83
2022-08-17T00:54:45.427Z,38.65
2022-08-17T00:57:45.686Z,35.85
2022-08-17T01:00:15.840Z,32.78
2022-08-17T01:02:44.572Z,29.67
2022-08-17T01:07:43.449Z,29.15
2022-08-17T01:10:57.311Z,29.95
2022-08-17T01:13:02.526Z,30.95
2022-08-17T01:15:31.626Z,27.00
2022-08-17T01:17:58.322Z,34.03
2022-08-17T01:20:25.204Z,36.50
2022-08-17T01:22:52.502Z,35.25
2022-08-17T01:25:19.753Z,37.70
2022-08-17T01:27:47.165Z,36.40
2022-08-17T01:30:57.188Z,39.05
2022-08-17T01:33:00.699Z,40.35
2022-08-17T01:35:27.453Z,42.08
2022-08-17T01:37:54.195Z,44.33
2022-08-17T01:40:40.227Z,48.85
2022-08-17T01:43:21.699Z,54.25
2022-08-17T01:46:02.662Z,55.88
2022-08-17T01:48:34.953Z,62.03
2022-08-17T01:51:02.337Z,51.72
2022-08-17T01:53:35.792Z,60.63
2022-08-17T01:56:09.750Z,61.92
2022-08-17T01:58:37.785Z,57.92
2022-08-17T02:01:06.391Z,60.05
2022-08-17T02:03:34.649Z,58.30
2022-08-17T02:06:02.342Z,56.10
2022-08-17T02:08:37.048Z,54.20
2022-08-17T02:11:11.366Z,50.03
2022-08-17T02:13:39.006Z,49.22
2022-08-17T02:16:06.199Z,45.95
2022-08-17T02:18:33.046Z,44.65
2022-08-17T02:21:00.109Z,43.28
2022-08-17T02:23:29.298Z,43.45
2022-08-17T02:25:58.486Z,40.13
2022-08-17T02:28:25.260Z,42.22
2022-08-17T02:31:01.582Z,41.47
2022-08-17T02:33:41.728Z,37.92
2022-08-17T02:36:11.542Z,41.00
2022-08-17T02:38:39.872Z,35.28
2022-08-17T02:41:06.831Z,40.60
2022-08-17T02:43:33.741Z,39.53
2022-08-17T02:46:00.602Z,37.42
2022-08-17T02:48:28.126Z,37.63
2022-08-17T02:50:58.106Z,34.35
2022-08-17T02:53:25.744Z,34.65
2022-08-17T02:55:53.232Z,32.97
2022-08-17T02:58:34.382Z,30.08
2022-08-17T03:01:07.174Z,29.10
2022-08-17T03:03:35.005Z,28.20
2022-08-17T03:06:02.158Z,29.88
2022-08-17T03:08:29.250Z,28.58
2022-08-17T03:10:56.138Z,28.73
2022-08-17T03:13:22.881Z,29.90
2022-08-17T03:15:49.738Z,31.27
2022-08-17T03:18:24.988Z,32.92
2022-08-17T03:20:55.358Z,31.10
2022-08-17T03:23:24.179Z,30.73
2022-08-17T03:25:53.521Z,29.92
2022-08-17T03:28:21.309Z,29.23
2022-08-17T03:30:48.097Z,30.85
2022-08-17T03:33:16.985Z,26.42
2022-08-17T03:35:43.944Z,27.27
2022-08-17T03:38:12.388Z,25.92
2022-08-17T03:40:57.432Z,28.67
2022-08-17T03:43:27.680Z,27.95
2022-08-17T03:46:32.393Z,26.88
2022-08-17T03:49:18.042Z,26.80
2022-08-17T03:52:03.123Z,28.70
2022-08-17T03:54:48.271Z,27.55
2022-08-17T03:57:15.022Z,25.05
2022-08-17T03:59:43.104Z,26.35
2022-08-17T04:02:18.028Z,23.55
2022-08-17T04:04:44.841Z,24.35
2022-08-17T04:07:11.653Z,22.23
2022-08-17T04:09:38.369Z,24.15
2022-08-17T04:12:05.678Z,23.10
2022-08-17T04:14:51.507Z,18.95
2022-08-17T04:17:25.522Z,21.23
2022-08-17T04:19:52.586Z,20.80
2022-08-17T04:22:30.581Z,21.13
2022-08-17T04:25:09.545Z,19.70
2022-08-17T04:27:36.706Z,18.00
2022-08-17T04:30:05.331Z,15.43
2022-08-17T04:33:03.401Z,18.13
2022-08-17T04:35:21.121Z,16.25
2022-08-17T04:37:47.820Z,17.05
2022-08-17T04:40:33.130Z,16.73
2022-08-17T04:43:09.151Z,18.30
2022-08-17T04:45:55.486Z,16.92
2022-08-17T04:48:29.715Z,17.98
2022-08-17T04:51:09.835Z,17.13
2022-08-17T04:53:38.296Z,18.42
2022-08-17T04:56:05.344Z,16.23
2022-08-17T04:58:32.327Z,15.48
2022-08-17T05:00:59.117Z,14.25
2022-08-17T05:03:26.460Z,17.23
2022-08-17T05:05:53.778Z,15.52
2022-08-17T05:08:21.223Z,13.85
2022-08-17T05:10:48.891Z,15.43
2022-08-17T05:13:25.851Z,15.85
2022-08-17T05:15:55.177Z,16.40
2022-08-17T05:18:22.042Z,13.27
2022-08-17T05:20:51.293Z,16.13
2022-08-17T05:23:20.209Z,16.05
2022-08-17T05:25:51.904Z,14.63
2022-08-17T05:28:22.915Z,15.70
2022-08-17T05:30:51.708Z,17.33
2022-08-17T05:33:21.281Z,14.27
2022-08-17T05:35:50.398Z,17.33
2022-08-17T05:38:19.286Z,17.25
2022-08-17T05:40:46.204Z,16.95
2022-08-17T05:43:15.421Z,15.35
2022-08-17T05:46:06.819Z,13.80
2022-08-17T05:48:40.447Z,16.38
2022-08-17T05:51:15.785Z,14.88
2022-08-17T05:53:42.402Z,14.13
2022-08-17T05:56:29.611Z,14.25
2022-08-17T05:59:11.242Z,15.32
2022-08-17T06:01:53.107Z,11.05
2022-08-17T06:04:46.175Z,13.43
2022-08-17T06:07:30.270Z,15.25
2022-08-17T06:10:14.694Z,13.07
2022-08-17T06:12:44.274Z,12.68
2022-08-17T06:15:27.963Z,11.82
2022-08-17T06:17:58.074Z,9.55
2022-08-17T06:20:27.931Z,12.27
2022-08-17T06:23:03.180Z,9.20
2022-08-17T06:25:44.384Z,10.40
2022-08-17T06:28:14.773Z,10.90
2022-08-17T06:30:59.406Z,10.07
2022-08-17T06:33:35.609Z,11.10
2022-08-17T06:36:23.605Z,11.40
2022-08-17T06:39:28.778Z,10.90
2022-08-17T06:41:59.555Z,11.73
2022-08-17T06:44:43.683Z,10.43
2022-08-17T06:47:36.601Z,11.18
2022-08-17T06:50:29.876Z,12.27
2022-08-17T06:53:06.068Z,10.55
2022-08-17T06:55:46.591Z,12.68
2022-08-17T06:58:15.880Z,10.85
2022-08-17T07:00:46.227Z,12.90
2022-08-17T07:03:21.073Z,10.77
2022-08-17T07:05:54.276Z,11.27
2022-08-17T07:08:38.001Z,11.82
2022-08-17T07:11:13.130Z,12.18
2022-08-17T07:13:51.569Z,11.60
2022-08-17T07:16:44.109Z,11.32
2022-08-17T07:19:11.453Z,10.90
2022-08-17T07:21:47.914Z,10.98
2022-08-17T07:24:26.248Z,11.63
2022-08-17T07:27:16.559Z,11.32
2022-08-17T07:29:56.740Z,10.32
2022-08-17T07:32:36.185Z,10.82
2022-08-17T07:35:18.160Z,10.85
2022-08-17T07:38:25.913Z,8.30
2022-08-17T07:41:13.987Z,9.10
2022-08-17T07:43:40.610Z,8.77
2022-08-17T07:46:38.191Z,8.90
2022-08-17T07:49:07.866Z,10.27
2022-08-17T07:51:36.726Z,10.82
2022-08-17T07:54:24.049Z,10.98
2022-08-17T07:56:53.775Z,10.68
2022-08-17T07:59:33.391Z,9.70
2022-08-17T08:02:06.362Z,11.52
2022-08-17T08:04:59.176Z,10.35
2022-08-17T08:07:31.928Z,15.10
2022-08-17T08:10:12.577Z,16.42
2022-08-17T08:12:41.125Z,13.45
2022-08-17T08:15:12.560Z,10.27
2022-08-17T08:17:55.463Z,6.88
2022-08-17T08:20:53.869Z,9.63
2022-08-17T08:23:26.789Z,7.65
2022-08-17T08:26:18.789Z,8.68
2022-08-17T08:29:28.261Z,7.50
2022-08-17T08:32:30.098Z,6.82
2022-08-17T08:35:08.758Z,6.38
2022-08-17T08:37:47.420Z,7.10
2022-08-17T08:40:42.151Z,5.75
2022-08-17T08:43:12.588Z,8.07
2022-08-17T08:45:45.822Z,5.60
2022-08-17T08:48:53.293Z,6.60
2022-08-17T08:51:28.885Z,6.25
2022-08-17T08:54:06.556Z,7.57
2022-08-17T08:57:30.938Z,6.70
2022-08-17T09:00:19.026Z,6.03
2022-08-17T09:03:08.490Z,5.80
2022-08-17T09:05:57.562Z,7.75
2022-08-17T09:08:42.997Z,6.40
2022-08-17T09:11:18.765Z,5.88
2022-08-17T09:14:00.041Z,7.68
2022-08-17T09:16:29.892Z,7.28
2022-08-17T09:21:47.951Z,6.55
2022-08-17T09:24:21.263Z,7.75
2022-08-17T09:27:05.194Z,7.72
2022-08-17T09:29:37.157Z,6.32
2022-08-17T09:32:25.466Z,7.72
2022-08-17T09:34:57.726Z,5.82
2022-08-17T09:37:49.096Z,7.53
2022-08-17T09:40:23.301Z,5.97
2022-08-17T09:42:53.845Z,7.85
2022-08-17T09:45:38.046Z,7.53
2022-08-17T09:48:26.101Z,7.47
2022-08-17T09:51:07.927Z,8.45
2022-08-17T09:53:38.812Z,8.05
2022-08-17T09:56:11.589Z,7.75
2022-08-17T09:59:14.500Z,6.75
2022-08-17T10:01:47.579Z,6.40
2022-08-17T10:04:20.088Z,6.32
2022-08-17T10:06:58.734Z,5.45
2022-08-17T10:09:49.132Z,6.57
2022-08-17T10:12:22.009Z,4.97
2022-08-17T10:15:17.411Z,6.32
2022-08-17T10:18:07.518Z,6.00
2022-08-17T10:20:46.271Z,5.00
2022-08-17T10:23:37.132Z,4.47
2022-08-17T10:26:17.537Z,6.28
2022-08-17T10:28:52.805Z,4.65
2022-08-17T10:31:43.160Z,5.75
2022-08-17T10:34:38.637Z,6.30
2022-08-17T10:37:19.949Z,5.28
2022-08-17T10:39:52.872Z,4.78
2022-08-17T10:42:35.339Z,5.35
2022-08-17T10:45:17.362Z,6.80
2022-08-17T10:48:04.092Z,5.05
2022-08-17T10:50:57.706Z,5.25
2022-08-17T10:53:33.368Z,5.88
2022-08-17T10:56:12.154Z,6.22
2022-08-17T10:58:50.849Z,5.22
2022-08-17T11:01:18.037Z,5.07
2022-08-17T11:03:57.331Z,6.18
2022-08-17T11:07:02.191Z,5.88
2022-08-17T11:09:49.543Z,4.40
2022-08-17T11:12:38.792Z,4.25
2022-08-17T11:15:27.090Z,4.30
2022-08-17T11:18:10.543Z,5.60
2022-08-17T11:21:02.051Z,4.55
2022-08-17T11:23:57.354Z,3.85
2022-08-17T11:26:26.393Z,5.15
2022-08-17T11:28:58.924Z,5.22
2022-08-17T11:31:42.652Z,5.43
2022-08-17T11:34:16.985Z,4.05
2022-08-17T11:37:17.124Z,5.20
2022-08-17T11:40:21.148Z,7.88
2022-08-17T11:43:14.005Z,8.07
2022-08-17T11:46:13.911Z,8.38
2022-08-17T11:49:05.093Z,6.00
2022-08-17T11:52:10.970Z,8.20
2022-08-17T11:54:47.255Z,6.22
2022-08-17T11:57:25.988Z,7.90
2022-08-17T12:00:30.243Z,8.18
2022-08-17T12:03:33.057Z,9.90
2022-08-17T12:06:04.246Z,8.93
2022-08-17T12:08:32.759Z,9.15
2022-08-17T12:12:01.578Z,8.98
2022-08-17T12:14:12.649Z,10.73
2022-08-17T12:16:44.361Z,13.23
2022-08-17T12:19:21.151Z,13.93
2022-08-17T12:21:54.594Z,10.93
2022-08-17T12:24:39.245Z,10.95
2022-08-17T12:27:07.285Z,11.32
2022-08-17T12:29:39.025Z,12.48
2022-08-17T12:32:07.199Z,12.00
2022-08-17T12:34:40.022Z,11.13
2022-08-17T12:37:15.269Z,9.40
2022-08-17T12:39:56.031Z,10.95
2022-08-17T12:42:25.556Z,12.32
2022-08-17T12:44:52.278Z,10.65
2022-08-17T12:47:22.858Z,10.02
2022-08-17T12:49:52.290Z,9.50
2022-08-17T12:52:29.755Z,7.53
2022-08-17T12:55:11.143Z,9.57
2022-08-17T12:57:51.493Z,10.13
2022-08-17T13:00:31.061Z,9.73
2022-08-17T13:03:01.444Z,9.90
2022-08-17T13:05:39.810Z,9.48
2022-08-17T13:08:21.266Z,10.13
2022-08-17T13:10:59.584Z,9.68
2022-08-17T13:13:29.354Z,8.50
2022-08-17T13:16:01.813Z,8.93
2022-08-17T13:18:48.654Z,8.80
2022-08-17T13:21:26.824Z,8.15
2022-08-17T13:24:19.691Z,8.63
2022-08-17T13:26:59.289Z,8.15
2022-08-17T13:29:36.581Z,8.07
2022-08-17T13:32:08.494Z,8.55
2022-08-17T13:35:15.406Z,6.25
2022-08-17T13:37:42.553Z,7.95
2022-08-17T13:40:09.518Z,6.55
2022-08-17T13:42:50.571Z,7.47
2022-08-17T13:45:36.315Z,7.35
2022-08-17T13:48:28.703Z,7.22
2022-08-17T13:50:55.350Z,7.82
2022-08-17T13:53:34.081Z,7.95
2022-08-17T13:56:37.655Z,8.30
2022-08-17T13:59:11.841Z,8.65
2022-08-17T14:01:53.645Z,9.32
2022-08-17T14:04:27.878Z,5.85
2022-08-17T14:07:11.571Z,7.00
2022-08-17T14:09:45.636Z,10.48
2022-08-17T14:12:15.522Z,7.43
2022-08-17T14:14:43.137Z,7.22
2022-08-17T14:17:10.741Z,7.15
2022-08-17T14:19:37.958Z,6.82
2022-08-17T14:22:08.976Z,6.35
2022-08-17T14:24:44.501Z,6.88
2022-08-17T14:27:12.156Z,7.30
2022-08-17T14:29:41.154Z,7.38
2022-08-17T14:32:16.611Z,8.13
2022-08-17T14:34:43.278Z,7.20
2022-08-17T14:37:10.028Z,7.78
2022-08-17T14:39:36.799Z,7.10
2022-08-17T14:42:03.788Z,7.22
2022-08-17T14:44:30.519Z,8.43
2022-08-17T14:46:57.303Z,7.15
2022-08-17T14:49:25.984Z,7.30
2022-08-17T14:51:52.977Z,7.18
2022-08-17T14:54:32.924Z,7.18
2022-08-17T14:57:09.359Z,6.85
2022-08-17T14:59:54.422Z,7.30
2022-08-17T15:02:29.786Z,7.03
2022-08-17T15:05:02.638Z,6.93
2022-08-17T15:07:30.804Z,6.35
2022-08-17T15:12:29.911Z,7.38
2022-08-17T15:15:00.690Z,5.40
2022-08-17T15:19:54.149Z,6.88
2022-08-17T15:22:25.008Z,6.70
2022-08-17T15:24:51.722Z,6.25
2022-08-17T15:27:31.519Z,7.03
2022-08-17T15:29:59.560Z,7.68
2022-08-17T15:32:31.261Z,8.45
2022-08-17T15:35:00.310Z,7.53
2022-08-17T15:37:28.253Z,8.57
2022-08-17T15:39:55.946Z,8.45
2022-08-17T15:42:23.454Z,7.25
2022-08-17T15:44:50.550Z,7.63
2022-08-17T15:47:17.762Z,14.27
2022-08-17T15:49:45.883Z,7.70
2022-08-17T15:52:20.122Z,7.82
2022-08-17T15:54:54.926Z,6.03
2022-08-17T15:59:50.751Z,7.88
2022-08-17T16:03:36.031Z,8.32
2022-08-17T16:05:22.212Z,7.20
2022-08-17T16:07:52.277Z,8.82
2022-08-17T16:10:19.682Z,8.82
2022-08-17T16:12:47.911Z,6.88
2022-08-17T16:15:15.251Z,10.32
2022-08-17T16:17:42.050Z,8.57
2022-08-17T16:20:20.713Z,8.48
2022-08-17T16:22:48.853Z,14.95
2022-08-17T16:25:51.993Z,8.82
2022-08-17T16:28:12.903Z,8.35
2022-08-17T16:30:40.009Z,8.55
2022-08-17T16:33:06.910Z,8.45
2022-08-17T16:35:33.645Z,8.80
2022-08-17T16:38:00.601Z,7.93
2022-08-17T16:40:28.870Z,11.98
2022-08-17T16:42:56.140Z,8.73
2022-08-17T16:45:29.392Z,8.63
2022-08-17T16:47:57.968Z,8.80
2022-08-17T16:50:25.211Z,7.88
2022-08-17T16:52:52.133Z,8.23
2022-08-17T16:55:21.510Z,10.85
2022-08-17T16:57:50.170Z,8.70
2022-08-17T17:00:19.467Z,7.80
2022-08-17T17:02:48.257Z,8.05
2022-08-17T17:05:42.602Z,8.05
2022-08-17T17:08:23.082Z,9.60
2022-08-17T17:10:57.293Z,10.80
2022-08-17T17:13:37.893Z,8.85
2022-08-17T17:16:21.834Z,9.77
2022-08-17T17:19:11.482Z,9.30
2022-08-17T17:21:44.641Z,15.85
2022-08-17T17:24:17.341Z,10.68
2022-08-17T17:26:52.961Z,9.57
2022-08-17T17:29:47.808Z,9.52
2022-08-17T17:32:49.038Z,9.88
2022-08-17T17:35:26.362Z,8.82
2022-08-17T17:37:54.463Z,9.38
2022-08-17T17:40:25.135Z,11.25
2022-08-17T17:42:53.572Z,12.88
2022-08-17T17:45:42.566Z,9.35
2022-08-17T17:48:09.283Z,10.65
2022-08-17T17:50:44.957Z,15.88
2022-08-17T17:53:41.542Z,11.18
2022-08-17T17:56:39.864Z,12.05
2022-08-17T17:59:12.815Z,9.98
2022-08-17T18:01:59.315Z,11.23
2022-08-17T18:04:59.749Z,10.38
2022-08-17T18:07:51.152Z,9.52
2022-08-17T18:10:30.479Z,10.75
2022-08-17T18:13:10.703Z,10.38
2022-08-17T18:15:51.197Z,10.02
2022-08-17T18:18:17.956Z,10.75
2022-08-17T18:20:53.645Z,10.52
2022-08-17T18:23:27.711Z,8.70
2022-08-17T18:25:56.006Z,10.32
2022-08-17T18:28:34.880Z,10.02
2022-08-17T18:31:21.115Z,9.68
2022-08-17T18:33:51.501Z,13.32
2022-08-17T18:36:34.173Z,10.13
2022-08-17T18:39:14.961Z,6.65
2022-08-17T18:41:47.810Z,9.38
2022-08-17T18:44:35.667Z,9.13
2022-08-17T18:47:26.915Z,8.80
2022-08-17T18:49:57.944Z,9.48
2022-08-17T18:52:27.775Z,10.02
2022-08-17T18:55:14.566Z,13.02
2022-08-17T18:58:15.014Z,9.57
2022-08-17T19:00:44.405Z,9.10
2022-08-17T19:03:20.304Z,14.10
2022-08-17T19:05:50.610Z,11.00
2022-08-17T19:08:29.455Z,9.75
2022-08-17T19:10:59.897Z,10.82
2022-08-17T19:13:37.621Z,10.35
2022-08-17T19:16:13.728Z,9.20
2022-08-17T19:18:48.873Z,9.68
2022-08-17T19:21:19.198Z,10.00
2022-08-17T19:24:10.961Z,11.77
2022-08-17T19:26:51.325Z,10.35
2022-08-17T19:29:25.696Z,10.95
2022-08-17T19:31:55.258Z,10.63
2022-08-17T19:34:33.398Z,10.57
2022-08-17T19:37:03.846Z,11.35
2022-08-17T19:39:54.604Z,10.40
2022-08-17T19:42:49.739Z,12.30
2022-08-17T19:45:37.870Z,10.77
2022-08-17T19:48:14.372Z,9.93
2022-08-17T19:50:44.325Z,12.23
2022-08-17T19:53:23.452Z,10.73
2022-08-17T19:56:15.760Z,15.68
2022-08-17T19:59:01.170Z,12.68
2022-08-17T20:01:54.710Z,11.38
2022-08-17T20:04:32.383Z,10.32
2022-08-17T20:07:07.291Z,10.98
2022-08-17T20:10:01.327Z,11.38
2022-08-17T20:12:32.054Z,11.80
2022-08-17T20:15:09.710Z,13.05
2022-08-17T20:17:45.464Z,11.60
2022-08-17T20:20:30.409Z,10.95
2022-08-17T20:23:31.250Z,9.52
2022-08-17T20:26:26.985Z,10.18
2022-08-17T20:29:16.650Z,10.65
2022-08-17T20:31:55.472Z,10.13
2022-08-17T20:34:33.738Z,10.15
2022-08-17T20:37:08.658Z,8.90
2022-08-17T20:40:06.762Z,9.77
2022-08-17T20:42:34.014Z,7.25
2022-08-17T20:45:20.665Z,9.98
2022-08-17T20:48:36.404Z,10.65
2022-08-17T20:51:15.661Z,9.85
2022-08-17T20:53:48.466Z,9.63
2022-08-17T20:56:56.267Z,10.05
2022-08-17T20:59:26.107Z,9.60
2022-08-17T21:02:18.640Z,10.27
2022-08-17T21:04:56.387Z,9.55
2022-08-17T21:07:53.935Z,9.48
2022-08-17T21:10:23.589Z,9.18
2022-08-17T21:12:53.076Z,10.35
2022-08-17T21:15:44.301Z,10.13
2022-08-17T21:18:39.208Z,10.30
2022-08-17T21:21:24.071Z,10.13
2022-08-17T21:24:13.659Z,12.02
2022-08-17T21:26:58.536Z,12.05
2022-08-17T21:29:32.315Z,13.65
2022-08-17T21:32:03.674Z,14.52
2022-08-17T21:34:39.386Z,12.98
2022-08-17T21:37:25.312Z,13.10
2022-08-17T21:40:10.392Z,12.98
2022-08-17T21:42:47.807Z,11.90
2022-08-17T21:45:40.932Z,12.13
2022-08-17T21:48:16.955Z,13.43
2022-08-17T21:51:01.042Z,12.85
2022-08-17T21:53:42.295Z,14.00
2022-08-17T21:56:11.546Z,14.07
2022-08-17T21:58:41.027Z,12.88
2022-08-17T22:01:53.462Z,15.18
2022-08-17T22:04:26.009Z,17.88
2022-08-17T22:06:57.629Z,17.65
2022-08-17T22:09:33.486Z,17.27
2022-08-17T22:12:09.240Z,17.50
2022-08-17T22:14:52.711Z,15.68
2022-08-17T22:17:26.288Z,15.63
2022-08-17T22:19:59.347Z,15.65
2022-08-17T22:22:31.036Z,12.75
2022-08-17T22:25:02.981Z,16.13
2022-08-17T22:27:55.645Z,15.40
2022-08-17T22:30:26.059Z,15.45
2022-08-17T22:32:52.843Z,16.08
2022-08-17T22:35:25.297Z,14.07
2022-08-17T22:37:52.297Z,16.10
2022-08-17T22:40:31.494Z,12.45
2022-08-17T22:42:59.404Z,15.30
2022-08-17T22:45:27.310Z,14.57
2022-08-17T22:47:56.063Z,14.23
2022-08-17T22:53:22.105Z,15.43
2022-08-17T22:56:13.910Z,19.88
2022-08-17T22:59:12.745Z,28.67
2022-08-17T23:01:40.354Z,24.63
2022-08-17T23:04:08.203Z,16.30
2022-08-17T23:06:36.801Z,14.48
2022-08-17T23:09:05.897Z,14.27
2022-08-17T23:11:49.569Z,13.35
2022-08-17T23:14:19.255Z,13.13
2022-08-17T23:16:46.983Z,14.00
2022-08-17T23:19:15.940Z,13.25
2022-08-17T23:21:44.905Z,15.00
2022-08-17T23:24:16.254Z,14.88
2022-08-17T23:26:42.959Z,15.15
2022-08-17T23:29:09.647Z,14.55
2022-08-17T23:31:37.703Z,13.73
2022-08-17T23:34:06.361Z,13.48
2022-08-17T23:36:35.907Z,13.57
2022-08-17T23:39:02.609Z,14.52
2022-08-17T23:41:32.002Z,14.57
2022-08-17T23:44:00.442Z,14.57
2022-08-17T23:46:27.146Z,14.07
2022-08-17T23:48:54.282Z,14.38
2022-08-17T23:51:24.358Z,13.30
2022-08-17T23:53:56.254Z,12.32
2022-08-17T23:56:25.842Z,12.20
2022-08-17T23:58:54.908Z,15.40
